Time,TemperatureF,DewpointF,PressureIn,WindDirection,WindDirectionDegrees,WindSpeedMPH,WindSpeedGustMPH,Humidity,HourlyPrecipIn,Conditions,Clouds,dailyrainin,SoftwareType,DateUTC
2013-07-23 00:09:00,73.1,71.0,29.84,ENE,60,4.0,6.0,94,0.00,,,0.00,weatherlink.com 1.10,2013-07-23 04:09:00,
2013-07-23 00:24:00,73.1,71.0,29.84,ENE,77,3.0,5.0,94,0.00,,,0.00,weatherlink.com 1.10,2013-07-23 04:24:00,
2013-07-23 00:39:00,72.9,71.0,29.84,ESE,103,2.0,6.0,95,0.00,,,0.00,weatherlink.com 1.10,2013-07-23 04:39:00,
2013-07-23 00:54:00,72.8,71.0,29.83,ESE,111,5.0,8.0,95,0.00,,,0.00,weatherlink.com 1.10,2013-07-23 04:54:00,
2013-07-23 01:09:00,72.7,71.0,29.82,WSW,253,0.0,6.0,95,0.00,,,0.00,weatherlink.com 1.10,2013-07-23 05:09:00,
2013-07-23 01:25:00,72.6,71.0,29.80,East,92,2.0,4.0,95,0.00,,,0.00,weatherlink.com 1.10,2013-07-23 05:25:00,
2013-07-23 01:39:00,72.7,71.0,29.80,ENE,77,0.0,5.0,95,0.00,,,0.00,weatherlink.com 1.10,2013-07-23 05:39:00,
2013-07-23 01:55:00,72.8,71.0,29.79,ENE,72,1.0,5.0,95,0.00,,,0.00,weatherlink.com 1.10,2013-07-23 05:55:00,
2013-07-23 02:10:00,73.0,72.0,29.78,East,79,0.0,7.0,96,0.00,,,0.00,weatherlink.com 1.10,2013-07-23 06:10:00,
2013-07-23 02:25:00,73.1,72.0,29.78,East,82,3.0,5.0,96,0.00,,,0.00,weatherlink.com 1.10,2013-07-23 06:25:00,
2013-07-23 02:40:00,73.1,72.0,29.78,East,92,3.0,5.0,96,0.00,,,0.00,weatherlink.com 1.10,2013-07-23 06:40:00,
2013-07-23 02:55:00,73.2,72.0,29.77,ESE,115,0.0,5.0,96,0.00,,,0.00,weatherlink.com 1.10,2013-07-23 06:55:00,
2013-07-23 03:10:00,73.2,72.0,29.76,East,87,1.0,6.0,96,0.00,,,0.00,weatherlink.com 1.10,2013-07-23 07:10:00,
2013-07-23 03:25:00,73.3,72.0,29.75,ENE,76,2.0,5.0,96,0.00,,,0.00,weatherlink.com 1.10,2013-07-23 07:25:00,
2013-07-23 03:40:00,73.4,72.0,29.74,ENE,76,1.0,4.0,96,0.00,,,0.00,weatherlink.com 1.10,2013-07-23 07:40:00,
2013-07-23 03:55:00,73.4,72.0,29.74,ENE,67,0.0,4.0,96,0.00,,,0.00,weatherlink.com 1.10,2013-07-23 07:55:00,
2013-07-23 04:10:00,73.5,72.0,29.73,ENE,76,0.0,6.0,96,0.00,,,0.00,weatherlink.com 1.10,2013-07-23 08:10:00,
2013-07-23 04:25:00,73.5,72.0,29.73,WSW,243,0.0,1.0,96,0.00,,,0.00,weatherlink.com 1.10,2013-07-23 08:25:00,
2013-07-23 04:40:00,73.5,72.0,29.72,ESE,115,3.0,4.0,96,0.00,,,0.00,weatherlink.com 1.10,2013-07-23 08:40:00,
2013-07-23 04:55:00,73.4,72.0,29.72,East,97,2.0,5.0,96,0.00,,,0.00,weatherlink.com 1.10,2013-07-23 08:55:00,
2013-07-23 05:10:00,73.3,72.0,29.72,SE,135,0.0,5.0,96,0.00,,,0.00,weatherlink.com 1.10,2013-07-23 09:10:00,
2013-07-23 05:25:00,73.3,72.0,29.72,SSE,152,0.0,2.0,96,0.00,,,0.00,weatherlink.com 1.10,2013-07-23 09:25:00,
2013-07-23 05:40:00,73.3,72.0,29.71,SE,126,1.0,5.0,96,0.00,,,0.00,weatherlink.com 1.10,2013-07-23 09:40:00,
2013-07-23 05:55:00,73.1,72.0,29.71,East,80,0.0,2.0,96,0.00,,,0.00,weatherlink.com 1.10,2013-07-23 09:55:00,
2013-07-23 06:10:00,73.0,72.0,29.71,SSE,167,0.0,2.0,97,0.00,,,0.00,weatherlink.com 1.10,2013-07-23 10:10:00,
2013-07-23 06:25:00,73.2,72.0,29.70,SSW,211,0.0,3.0,97,0.00,,,0.00,weatherlink.com 1.10,2013-07-23 10:25:00,
2013-07-23 06:40:00,73.4,73.0,29.70,SW,216,0.0,5.0,97,0.00,,,0.00,weatherlink.com 1.10,2013-07-23 10:40:00,
2013-07-23 06:55:00,73.5,73.0,29.70,SE,129,1.0,3.0,97,0.00,,,0.00,weatherlink.com 1.10,2013-07-23 10:55:00,
2013-07-23 07:10:00,73.6,73.0,29.69,SSE,150,1.0,3.0,97,0.00,,,0.00,weatherlink.com 1.10,2013-07-23 11:10:00,
2013-07-23 07:25:00,73.7,73.0,29.68,SSE,158,3.0,3.0,97,0.00,,,0.00,weatherlink.com 1.10,2013-07-23 11:25:00,
2013-07-23 07:40:00,73.9,73.0,29.68,SW,231,4.0,8.0,97,0.04,,,0.04,weatherlink.com 1.10,2013-07-23 11:40:00,
2013-07-23 07:55:00,74.2,73.0,29.67,SSE,165,4.0,5.0,97,0.17,,,0.17,weatherlink.com 1.10,2013-07-23 11:55:00,
2013-07-23 08:10:00,74.5,74.0,29.67,SE,142,0.0,9.0,97,0.17,,,0.17,weatherlink.com 1.10,2013-07-23 12:10:00,
2013-07-23 08:25:00,74.5,74.0,29.67,SW,216,0.0,8.0,97,0.18,,,0.18,weatherlink.com 1.10,2013-07-23 12:25:00,
2013-07-23 08:40:00,74.7,74.0,29.66,South,174,0.0,5.0,97,0.14,,,0.18,weatherlink.com 1.10,2013-07-23 12:40:00,
2013-07-23 08:55:00,74.9,74.0,29.65,SSE,149,0.0,6.0,97,0.01,,,0.18,weatherlink.com 1.10,2013-07-23 12:55:00,
2013-07-23 09:10:00,75.2,75.0,29.65,ESE,120,0.0,8.0,98,0.01,,,0.18,weatherlink.com 1.10,2013-07-23 13:10:00,
2013-07-23 09:25:00,75.4,75.0,29.65,WSW,247,3.0,5.0,98,0.00,,,0.18,weatherlink.com 1.10,2013-07-23 13:25:00,
2013-07-23 09:40:00,75.5,75.0,29.64,SW,225,1.0,7.0,97,0.00,,,0.18,weatherlink.com 1.10,2013-07-23 13:40:00,
2013-07-23 09:55:00,75.6,75.0,29.63,SW,226,1.0,5.0,97,0.00,,,0.18,weatherlink.com 1.10,2013-07-23 13:55:00,
2013-07-23 10:10:00,75.5,75.0,29.63,SW,221,1.0,6.0,97,0.00,,,0.18,weatherlink.com 1.10,2013-07-23 14:10:00,
2013-07-23 10:25:00,75.8,75.0,29.63,SSE,155,0.0,5.0,98,0.00,,,0.18,weatherlink.com 1.10,2013-07-23 14:25:00,
2013-07-23 10:40:00,76.0,75.0,29.63,South,174,0.0,7.0,97,0.00,,,0.18,weatherlink.com 1.10,2013-07-23 14:40:00,
2013-07-23 10:55:00,76.3,75.0,29.63,WNW,296,1.0,11.0,97,0.00,,,0.18,weatherlink.com 1.10,2013-07-23 14:55:00,
2013-07-23 11:11:00,77.0,76.0,29.62,WSW,250,2.0,8.0,97,0.00,,,0.18,weatherlink.com 1.10,2013-07-23 15:11:00,
2013-07-23 11:26:00,78.1,77.0,29.62,SW,235,6.0,7.0,96,0.00,,,0.18,weatherlink.com 1.10,2013-07-23 15:26:00,
2013-07-23 11:41:00,78.3,76.0,29.62,SW,226,0.0,6.0,93,0.00,,,0.18,weatherlink.com 1.10,2013-07-23 15:41:00,
2013-07-23 11:56:00,78.8,76.0,29.61,SSW,208,1.0,8.0,92,0.00,,,0.18,weatherlink.com 1.10,2013-07-23 15:56:00,
2013-07-23 12:11:00,79.0,76.0,29.61,West,264,0.0,7.0,91,0.00,,,0.18,weatherlink.com 1.10,2013-07-23 16:11:00,
2013-07-23 12:26:00,79.5,76.0,29.60,SSW,198,0.0,6.0,90,0.00,,,0.18,weatherlink.com 1.10,2013-07-23 16:26:00,
2013-07-23 12:41:00,79.1,76.0,29.60,West,273,5.0,7.0,90,0.00,,,0.18,weatherlink.com 1.10,2013-07-23 16:41:00,
2013-07-23 12:56:00,79.1,76.0,29.59,SW,218,2.0,10.0,91,0.00,,,0.18,weatherlink.com 1.10,2013-07-23 16:56:00,
2013-07-23 13:11:00,79.3,76.0,29.59,WSW,257,0.0,11.0,90,0.00,,,0.18,weatherlink.com 1.10,2013-07-23 17:11:00,
2013-07-23 13:26:00,79.7,77.0,29.58,SE,126,0.0,11.0,90,0.00,,,0.18,weatherlink.com 1.10,2013-07-23 17:26:00,
2013-07-23 13:41:00,80.1,77.0,29.58,SW,234,2.0,12.0,89,0.00,,,0.18,weatherlink.com 1.10,2013-07-23 17:41:00,
2013-07-23 14:26:00,81.1,77.0,29.57,West,263,1.0,10.0,87,0.00,,,0.18,weatherlink.com 1.10,2013-07-23 18:26:00,
2013-07-23 14:41:00,81.1,77.0,29.56,West,275,0.0,10.0,86,0.00,,,0.18,weatherlink.com 1.10,2013-07-23 18:41:00,
2013-07-23 14:56:00,81.1,77.0,29.56,NW,316,0.0,8.0,87,0.00,,,0.18,weatherlink.com 1.10,2013-07-23 18:56:00,
2013-07-23 15:11:00,81.1,77.0,29.56,NNE,12,2.0,12.0,86,0.00,,,0.18,weatherlink.com 1.10,2013-07-23 19:11:00,
2013-07-23 15:41:00,82.1,77.0,29.55,SW,215,2.0,8.0,83,0.00,,,0.18,weatherlink.com 1.10,2013-07-23 19:41:00,
2013-07-23 15:56:00,81.7,76.0,29.55,SW,224,0.0,9.0,83,0.00,,,0.18,weatherlink.com 1.10,2013-07-23 19:56:00,
2013-07-23 16:11:00,81.3,76.0,29.55,SW,222,4.0,11.0,84,0.00,,,0.18,weatherlink.com 1.10,2013-07-23 20:11:00,
2013-07-23 16:26:00,81.8,76.0,29.55,West,269,1.0,7.0,83,0.00,,,0.18,weatherlink.com 1.10,2013-07-23 20:26:00,
2013-07-23 16:41:00,81.5,75.0,29.55,SE,137,0.0,6.0,81,0.00,,,0.18,weatherlink.com 1.10,2013-07-23 20:41:00,
2013-07-23 17:11:00,79.6,74.0,29.55,West,269,0.0,7.0,83,0.00,,,0.18,weatherlink.com 1.10,2013-07-23 21:11:00,
2013-07-23 17:41:00,80.4,75.0,29.54,North,3,0.0,8.0,82,0.00,,,0.18,weatherlink.com 1.10,2013-07-23 21:41:00,
2013-07-23 17:56:00,80.3,75.0,29.54,SSW,207,0.0,7.0,83,0.00,,,0.18,weatherlink.com 1.10,2013-07-23 21:56:00,
2013-07-23 18:11:00,79.4,74.0,29.54,WSW,243,0.0,5.0,83,0.00,,,0.18,weatherlink.com 1.10,2013-07-23 22:11:00,
2013-07-23 18:26:00,78.8,74.0,29.55,WSW,247,0.0,10.0,84,0.00,,,0.18,weatherlink.com 1.10,2013-07-23 22:26:00,
2013-07-23 18:41:00,78.1,74.0,29.55,West,264,1.0,10.0,86,0.00,,,0.18,weatherlink.com 1.10,2013-07-23 22:41:00,
2013-07-23 18:56:00,77.9,74.0,29.56,West,275,0.0,5.0,86,0.00,,,0.18,weatherlink.com 1.10,2013-07-23 22:56:00,
2013-07-23 19:11:00,77.6,74.0,29.56,SSW,203,3.0,5.0,87,0.00,,,0.18,weatherlink.com 1.10,2013-07-23 23:11:00,
2013-07-23 19:41:00,77.0,73.0,29.56,SW,218,0.0,7.0,88,0.00,,,0.18,weatherlink.com 1.10,2013-07-23 23:41:00,
2013-07-23 19:56:00,76.6,74.0,29.57,West,261,0.0,6.0,90,0.00,,,0.18,weatherlink.com 1.10,2013-07-23 23:56:00,
2013-07-23 20:11:00,76.4,74.0,29.57,SW,216,1.0,4.0,91,0.00,,,0.18,weatherlink.com 1.10,2013-07-24 00:11:00,
2013-07-23 20:26:00,76.2,74.0,29.57,SW,236,0.0,4.0,92,0.00,,,0.18,weatherlink.com 1.10,2013-07-24 00:26:00,
2013-07-23 20:41:00,75.9,74.0,29.56,South,173,0.0,3.0,93,0.00,,,0.18,weatherlink.com 1.10,2013-07-24 00:41:00,
2013-07-23 21:11:00,75.3,74.0,29.57,West,262,0.0,2.0,94,0.00,,,0.18,weatherlink.com 1.10,2013-07-24 01:11:00,
2013-07-23 21:26:00,75.1,73.0,29.57,WNW,288,0.0,2.0,94,0.00,,,0.18,weatherlink.com 1.10,2013-07-24 01:26:00,
2013-07-23 21:56:00,74.9,73.0,29.58,NW,306,0.0,1.0,94,0.00,,,0.18,weatherlink.com 1.10,2013-07-24 01:56:00,
2013-07-23 22:11:00,74.7,73.0,29.57,West,262,0.0,1.0,94,0.00,,,0.18,weatherlink.com 1.10,2013-07-24 02:11:00,
2013-07-23 22:41:00,74.5,73.0,29.58,West,262,0.0,0.0,95,0.00,,,0.18,weatherlink.com 1.10,2013-07-24 02:41:00,
2013-07-23 22:56:00,74.3,73.0,29.58,WSW,256,0.0,1.0,95,0.00,,,0.18,weatherlink.com 1.10,2013-07-24 02:56:00,
2013-07-23 23:11:00,74.2,73.0,29.58,WSW,257,0.0,1.0,95,0.00,,,0.18,weatherlink.com 1.10,2013-07-24 03:11:00,
2013-07-23 23:26:00,73.9,72.0,29.58,WSW,256,0.0,1.0,95,0.00,,,0.18,weatherlink.com 1.10,2013-07-24 03:26:00,
2013-07-23 23:56:00,73.4,72.0,29.58,WSW,256,0.0,0.0,95,0.00,,,0.18,weatherlink.com 1.10,2013-07-24 03:56:00,